createdAt,value
2023-02-12T00:01:28.942Z,100.00
2023-02-12T00:03:56.774Z,100.00
2023-02-12T00:06:24.551Z,100.00
2023-02-12T00:08:52.510Z,100.00
2023-02-12T00:11:23.261Z,100.00
2023-02-12T00:13:51.034Z,100.00
2023-02-12T00:16:20.389Z,100.00
2023-02-12T00:18:47.876Z,100.00
2023-02-12T00:21:15.393Z,100.00
2023-02-12T00:23:42.746Z,100.00
2023-02-12T00:26:11.960Z,100.00
2023-02-12T00:28:41.158Z,100.00
2023-02-12T00:31:17.098Z,100.00
2023-02-12T00:33:44.802Z,100.00
2023-02-12T00:36:18.160Z,100.00
2023-02-12T00:38:45.761Z,100.00
2023-02-12T00:41:13.054Z,100.00
2023-02-12T00:43:40.863Z,99.34
2023-02-12T00:46:09.045Z,99.91
2023-02-12T00:48:38.158Z,99.48
2023-02-12T00:51:05.693Z,99.14
2023-02-12T00:53:33.300Z,99.48
2023-02-12T00:56:00.957Z,98.92
2023-02-12T00:58:29.675Z,98.36
2023-02-12T01:00:57.063Z,98.56
2023-02-12T01:03:25.035Z,98.97
2023-02-12T01:05:53.262Z,99.43
2023-02-12T01:08:21.265Z,99.81
2023-02-12T01:10:55.701Z,99.66
2023-02-12T01:13:25.945Z,99.70
2023-02-12T01:16:17.120Z,99.83
2023-02-12T01:18:44.514Z,99.53
2023-02-12T01:21:13.660Z,99.66
2023-02-12T01:23:41.503Z,99.90
2023-02-12T01:26:10.895Z,100.00
2023-02-12T01:28:42.643Z,100.00
2023-02-12T01:31:15.004Z,100.00
2023-02-12T01:33:42.602Z,100.00
2023-02-12T01:36:12.238Z,100.00
2023-02-12T01:38:39.496Z,100.00
2023-02-12T01:41:08.420Z,100.00
2023-02-12T01:43:37.039Z,100.00
2023-02-12T01:46:04.842Z,99.73
2023-02-12T01:48:37.736Z,99.88
2023-02-12T01:51:05.066Z,100.00
2023-02-12T01:53:35.561Z,100.00
2023-02-12T01:56:02.990Z,100.00
2023-02-12T01:58:32.103Z,99.72
2023-02-12T02:00:59.772Z,99.99
2023-02-12T02:03:27.563Z,99.66
2023-02-12T02:05:58.979Z,99.39
2023-02-12T02:08:26.288Z,99.59
2023-02-12T02:10:53.851Z,99.32
2023-02-12T02:13:39.527Z,99.00
2023-02-12T02:16:28.299Z,98.28
2023-02-12T02:19:01.063Z,97.78
2023-02-12T02:21:50.272Z,97.51
2023-02-12T02:24:59.335Z,97.24
2023-02-12T02:27:45.301Z,97.78
2023-02-12T02:30:45.685Z,97.72
2023-02-12T02:33:24.636Z,98.27
2023-02-12T02:35:51.720Z,97.96
2023-02-12T02:38:26.970Z,98.56
2023-02-12T02:41:07.499Z,98.69
2023-02-12T02:43:44.928Z,99.01
2023-02-12T02:46:15.962Z,99.25
2023-02-12T02:48:54.447Z,100.00
2023-02-12T02:51:25.582Z,99.78
2023-02-12T02:53:54.716Z,100.00
2023-02-12T02:56:22.842Z,100.00
2023-02-12T02:59:08.664Z,100.00
2023-02-12T03:01:44.464Z,100.00
2023-02-12T03:04:24.034Z,100.00
2023-02-12T03:07:08.914Z,100.00
2023-02-12T03:09:38.536Z,100.00
2023-02-12T03:12:14.528Z,100.00
2023-02-12T03:14:44.868Z,100.00
2023-02-12T03:17:30.331Z,100.00
2023-02-12T03:20:05.601Z,100.00
2023-02-12T03:22:34.653Z,100.00
2023-02-12T03:25:15.462Z,100.00
2023-02-12T03:28:00.901Z,100.00
2023-02-12T03:30:50.811Z,100.00
2023-02-12T03:33:50.969Z,100.00
2023-02-12T03:37:02.866Z,100.00
2023-02-12T03:39:49.581Z,100.00
2023-02-12T03:42:21.991Z,100.00
2023-02-12T03:44:57.723Z,100.00
2023-02-12T03:47:52.755Z,100.00
2023-02-12T03:50:25.342Z,100.00
2023-02-12T03:52:53.251Z,100.00
2023-02-12T03:55:20.494Z,100.00
2023-02-12T03:57:54.524Z,100.00
2023-02-12T04:00:23.165Z,100.00
2023-02-12T04:02:50.675Z,100.00
2023-02-12T04:05:23.843Z,100.00
2023-02-12T04:07:51.648Z,100.00
2023-02-12T04:10:20.636Z,100.00
2023-02-12T04:13:16.423Z,100.00
2023-02-12T04:16:01.443Z,100.00
2023-02-12T04:18:49.466Z,100.00
2023-02-12T04:21:43.078Z,100.00
2023-02-12T04:24:23.341Z,100.00
2023-02-12T04:27:05.826Z,100.00
2023-02-12T04:29:56.748Z,100.00
2023-02-12T04:32:38.207Z,100.00
2023-02-12T04:35:10.995Z,100.00
2023-02-12T04:37:41.469Z,100.00
2023-02-12T04:40:12.312Z,100.00
2023-02-12T04:42:48.914Z,100.00
2023-02-12T04:45:27.679Z,100.00
2023-02-12T04:47:55.027Z,100.00
2023-02-12T04:50:22.500Z,100.00
2023-02-12T04:52:51.351Z,100.00
2023-02-12T04:55:18.673Z,100.00
2023-02-12T04:57:45.888Z,100.00
2023-02-12T05:00:14.035Z,100.00
2023-02-12T05:02:41.293Z,100.00
2023-02-12T05:05:08.838Z,100.00
2023-02-12T05:07:36.169Z,100.00
2023-02-12T05:10:04.663Z,100.00
2023-02-12T05:12:39.738Z,100.00
2023-02-12T05:15:09.331Z,100.00
2023-02-12T05:17:36.835Z,100.00
2023-02-12T05:20:05.592Z,100.00
2023-02-12T05:22:33.881Z,100.00
2023-02-12T05:25:01.165Z,100.00
2023-02-12T05:27:29.450Z,100.00
2023-02-12T05:29:59.557Z,100.00
2023-02-12T05:32:26.784Z,100.00
2023-02-12T05:34:54.600Z,100.00
2023-02-12T05:37:21.827Z,100.00
2023-02-12T05:39:50.434Z,100.00
2023-02-12T05:42:17.646Z,100.00
2023-02-12T05:44:47.396Z,100.00
2023-02-12T05:47:14.999Z,100.00
2023-02-12T05:49:42.842Z,100.00
2023-02-12T05:52:10.067Z,100.00
2023-02-12T05:54:37.345Z,100.00
2023-02-12T05:57:04.880Z,100.00
2023-02-12T05:59:32.188Z,100.00
2023-02-12T06:01:59.416Z,100.00
2023-02-12T06:04:28.397Z,100.00
2023-02-12T06:06:55.937Z,100.00
2023-02-12T06:09:23.373Z,100.00
2023-02-12T06:11:50.595Z,100.00
2023-02-12T06:14:18.832Z,100.00
2023-02-12T06:16:53.197Z,100.00
2023-02-12T06:19:21.190Z,100.00
2023-02-12T06:21:48.442Z,100.00
2023-02-12T06:24:16.246Z,100.00
2023-02-12T06:26:44.213Z,100.00
2023-02-12T06:29:13.281Z,100.00
2023-02-12T06:31:40.662Z,100.00
2023-02-12T06:34:09.547Z,100.00
2023-02-12T06:36:40.893Z,100.00
2023-02-12T06:39:08.263Z,100.00
2023-02-12T06:41:35.664Z,100.00
2023-02-12T06:44:03.521Z,100.00
2023-02-12T06:46:30.980Z,100.00
2023-02-12T06:48:59.645Z,100.00
2023-02-12T06:51:27.519Z,100.00
2023-02-12T06:53:55.223Z,100.00
2023-02-12T06:56:24.143Z,100.00
2023-02-12T06:58:56.465Z,100.00
2023-02-12T07:01:27.575Z,100.00
2023-02-12T07:03:56.516Z,100.00
2023-02-12T07:06:23.943Z,100.00
2023-02-12T07:08:51.636Z,100.00
2023-02-12T07:11:19.083Z,100.00
2023-02-12T07:13:46.423Z,100.00
2023-02-12T07:16:15.381Z,100.00
2023-02-12T07:18:44.244Z,100.00
2023-02-12T07:21:12.163Z,100.00
2023-02-12T07:23:39.469Z,100.00
2023-02-12T07:26:08.487Z,100.00
2023-02-12T07:28:37.785Z,100.00
2023-02-12T07:31:09.894Z,100.00
2023-02-12T07:33:37.408Z,100.00
2023-02-12T07:36:05.711Z,100.00
2023-02-12T07:38:36.044Z,100.00
2023-02-12T07:41:15.283Z,100.00
2023-02-12T07:43:43.543Z,100.00
2023-02-12T07:46:17.372Z,100.00
2023-02-12T07:48:45.418Z,100.00
2023-02-12T07:51:15.166Z,100.00
2023-02-12T07:53:42.483Z,100.00
2023-02-12T07:56:11.464Z,100.00
2023-02-12T07:58:38.998Z,100.00
2023-02-12T08:01:28.837Z,100.00
2023-02-12T08:04:00.631Z,100.00
2023-02-12T08:06:30.088Z,100.00
2023-02-12T08:08:59.194Z,100.00
2023-02-12T08:11:26.974Z,100.00
2023-02-12T08:13:59.414Z,88.93
2023-02-12T08:16:27.727Z,70.30
2023-02-12T08:18:55.859Z,62.06
2023-02-12T08:21:27.919Z,54.04
2023-02-12T08:23:56.097Z,50.10
2023-02-12T08:26:25.621Z,48.23
2023-02-12T08:28:55.355Z,47.02
2023-02-12T08:31:25.458Z,46.78
2023-02-12T08:33:53.951Z,44.76
2023-02-12T08:36:26.260Z,46.43
2023-02-12T08:38:54.168Z,47.51
2023-02-12T08:41:25.358Z,46.99
2023-02-12T08:43:53.947Z,46.51
2023-02-12T08:46:26.341Z,44.44
2023-02-12T08:48:55.952Z,43.48
2023-02-12T08:51:25.544Z,42.93
2023-02-12T08:53:54.734Z,45.09
2023-02-12T08:56:27.395Z,45.03
2023-02-12T08:58:54.684Z,43.79
2023-02-12T09:01:22.716Z,41.79
2023-02-12T09:03:50.364Z,44.89
2023-02-12T09:06:18.555Z,48.08
2023-02-12T09:08:45.894Z,47.36
2023-02-12T09:11:24.367Z,48.63
2023-02-12T09:13:51.696Z,48.46
2023-02-12T09:16:18.959Z,48.86
2023-02-12T09:18:47.397Z,48.55
2023-02-12T09:21:16.713Z,50.85
2023-02-12T09:23:44.208Z,53.58
2023-02-12T09:26:13.302Z,50.54
2023-02-12T09:28:40.731Z,47.92
2023-02-12T09:31:09.517Z,50.98
2023-02-12T09:33:36.825Z,54.49
2023-02-12T09:36:04.986Z,56.87
2023-02-12T09:38:32.748Z,57.11
2023-02-12T09:41:06.071Z,57.86
2023-02-12T09:43:54.771Z,54.85
2023-02-12T09:46:31.227Z,51.02
2023-02-12T09:49:17.169Z,49.37
2023-02-12T09:51:45.694Z,52.83
2023-02-12T09:54:15.388Z,51.40
2023-02-12T09:57:04.781Z,48.10
2023-02-12T09:59:43.745Z,45.51
2023-02-12T10:02:18.230Z,46.96
2023-02-12T10:05:00.229Z,43.65
2023-02-12T10:07:43.188Z,44.95
2023-02-12T10:10:23.615Z,43.34
2023-02-12T10:12:55.378Z,43.34
2023-02-12T10:15:50.995Z,44.08
2023-02-12T10:18:52.061Z,43.83
2023-02-12T10:21:31.522Z,45.95
2023-02-12T10:24:19.730Z,48.20
2023-02-12T10:26:49.315Z,49.76
2023-02-12T10:29:21.195Z,50.27
2023-02-12T10:34:34.964Z,48.24
2023-02-12T10:37:37.863Z,45.08
2023-02-12T10:40:14.149Z,44.93
2023-02-12T10:42:43.550Z,45.98
2023-02-12T10:45:39.903Z,48.61
2023-02-12T10:48:20.783Z,48.93
2023-02-12T10:51:09.437Z,49.89
2023-02-12T10:53:44.600Z,50.70
2023-02-12T10:56:12.031Z,49.97
2023-02-12T10:58:41.623Z,50.37
2023-02-12T11:01:17.734Z,50.12
2023-02-12T11:03:45.053Z,49.74
2023-02-12T11:06:17.756Z,48.82
2023-02-12T11:08:45.561Z,47.94
2023-02-12T11:11:16.353Z,48.06
2023-02-12T11:14:07.719Z,47.68
2023-02-12T11:16:36.948Z,48.10
2023-02-12T11:19:09.141Z,48.67
2023-02-12T11:21:36.575Z,50.10
2023-02-12T11:24:22.004Z,49.31
2023-02-12T11:26:49.447Z,50.59
2023-02-12T11:29:21.564Z,50.99
2023-02-12T11:32:08.422Z,51.56
2023-02-12T11:34:36.714Z,52.29
2023-02-12T11:37:05.149Z,52.40
2023-02-12T11:39:37.802Z,52.08
2023-02-12T11:42:19.005Z,53.37
2023-02-12T11:44:51.632Z,52.19
2023-02-12T11:47:20.513Z,52.47
2023-02-12T11:49:54.777Z,53.12
2023-02-12T11:52:25.753Z,53.93
2023-02-12T11:55:17.571Z,53.29
2023-02-12T11:57:48.106Z,54.01
2023-02-12T12:00:35.771Z,53.06
2023-02-12T12:03:15.014Z,54.29
2023-02-12T12:05:53.132Z,54.77
2023-02-12T12:08:26.074Z,54.31
2023-02-12T12:11:17.597Z,54.87
2023-02-12T12:13:48.929Z,56.92
2023-02-12T12:17:19.425Z,57.28
2023-02-12T12:19:57.179Z,56.17
2023-02-12T12:22:36.985Z,54.86
2023-02-12T12:25:27.364Z,51.14
2023-02-12T12:28:20.870Z,50.35
2023-02-12T12:31:06.598Z,51.00
2023-02-12T12:33:47.109Z,51.31
2023-02-12T12:36:34.802Z,51.61
2023-02-12T12:39:21.491Z,50.53
2023-02-12T12:42:28.270Z,51.25
2023-02-12T12:45:23.557Z,52.02
2023-02-12T12:48:07.669Z,50.95
2023-02-12T12:50:37.929Z,51.17
2023-02-12T12:53:36.635Z,51.46
2023-02-12T12:56:40.372Z,51.55
2023-02-12T12:59:19.634Z,50.66
2023-02-12T13:02:05.825Z,51.14
2023-02-12T13:04:33.290Z,51.12
2023-02-12T13:07:06.212Z,50.43
2023-02-12T13:09:57.366Z,51.09
2023-02-12T13:13:29.169Z,50.67
2023-02-12T13:16:05.706Z,50.95
2023-02-12T13:19:02.303Z,51.40
2023-02-12T13:21:43.309Z,51.09
2023-02-12T13:24:19.614Z,51.99
2023-02-12T13:26:57.332Z,51.74
2023-02-12T13:29:32.485Z,52.28
2023-02-12T13:32:03.895Z,52.84
2023-02-12T13:34:34.308Z,52.82
2023-02-12T13:37:01.652Z,53.94
2023-02-12T13:39:32.746Z,53.25
2023-02-12T13:42:06.237Z,56.03
2023-02-12T13:44:53.259Z,57.54
2023-02-12T13:47:48.131Z,57.28
2023-02-12T13:50:46.339Z,59.22
2023-02-12T13:53:47.919Z,59.66
2023-02-12T13:56:25.497Z,56.02
2023-02-12T13:59:01.170Z,56.04
2023-02-12T14:01:35.329Z,55.18
2023-02-12T14:04:20.989Z,55.73
2023-02-12T14:06:59.739Z,54.80
2023-02-12T14:09:54.225Z,54.96
2023-02-12T14:12:24.940Z,54.29
2023-02-12T14:14:54.651Z,55.31
2023-02-12T14:17:28.103Z,55.31
2023-02-12T14:19:57.204Z,53.66
2023-02-12T14:22:24.737Z,54.84
2023-02-12T14:24:53.226Z,54.93
2023-02-12T14:27:31.150Z,55.50
2023-02-12T14:30:04.654Z,56.23
2023-02-12T14:32:45.373Z,57.06
2023-02-12T14:35:36.916Z,56.33
2023-02-12T14:38:10.257Z,57.73
2023-02-12T14:40:42.492Z,58.01
2023-02-12T14:43:55.882Z,57.81
2023-02-12T14:46:23.172Z,58.49
2023-02-12T14:49:04.792Z,59.17
2023-02-12T14:51:35.341Z,59.37
2023-02-12T14:54:04.212Z,59.92
2023-02-12T14:56:33.314Z,59.54
2023-02-12T14:59:00.518Z,59.40
2023-02-12T15:01:33.928Z,58.95
2023-02-12T15:04:08.990Z,59.68
2023-02-12T15:06:39.965Z,58.60
2023-02-12T15:09:10.389Z,59.23
2023-02-12T15:12:09.658Z,59.66
2023-02-12T15:14:40.365Z,60.52
2023-02-12T15:17:26.473Z,61.60
2023-02-12T15:20:02.570Z,61.38
2023-02-12T15:22:38.260Z,61.10
2023-02-12T15:25:15.060Z,61.78
2023-02-12T15:27:44.276Z,63.12
2023-02-12T15:30:26.091Z,64.05
2023-02-12T15:32:56.403Z,65.32
2023-02-12T15:35:31.539Z,67.83
2023-02-12T15:38:02.039Z,69.39
2023-02-12T15:40:30.529Z,69.98
2023-02-12T15:43:02.845Z,69.39
2023-02-12T15:45:35.902Z,67.55
2023-02-12T15:48:09.547Z,69.54
2023-02-12T15:50:54.014Z,68.21
2023-02-12T15:53:22.564Z,69.13
2023-02-12T15:55:51.225Z,68.83
2023-02-12T15:58:32.069Z,68.94
2023-02-12T16:01:05.690Z,69.04
2023-02-12T16:03:37.668Z,69.07
2023-02-12T16:06:11.504Z,70.00
2023-02-12T16:08:41.980Z,70.41
2023-02-12T16:11:15.250Z,70.61
2023-02-12T16:13:53.243Z,70.37
2023-02-12T16:16:21.861Z,71.74
2023-02-12T16:19:07.313Z,72.44
2023-02-12T16:21:36.956Z,72.18
2023-02-12T16:24:04.697Z,72.98
2023-02-12T16:26:31.938Z,74.72
2023-02-12T16:28:59.296Z,79.66
2023-02-12T16:31:27.090Z,80.83
2023-02-12T16:33:59.368Z,86.77
2023-02-12T16:36:30.440Z,96.72
2023-02-12T16:39:05.560Z,100.00
2023-02-12T16:41:33.772Z,100.00
2023-02-12T16:44:00.928Z,100.00
2023-02-12T16:46:29.029Z,100.00
2023-02-12T16:48:56.479Z,99.28
2023-02-12T16:51:25.501Z,99.67
2023-02-12T16:53:54.178Z,98.49
2023-02-12T16:56:22.811Z,97.78
2023-02-12T16:58:57.010Z,96.77
2023-02-12T17:01:33.837Z,96.51
2023-02-12T17:04:09.809Z,96.99
2023-02-12T17:06:38.014Z,97.62
2023-02-12T17:09:08.087Z,96.28
2023-02-12T17:11:36.094Z,97.47
2023-02-12T17:14:05.771Z,96.70
2023-02-12T17:16:34.198Z,96.68
2023-02-12T17:19:06.825Z,96.14
2023-02-12T17:21:38.658Z,95.73
2023-02-12T17:24:23.226Z,95.99
2023-02-12T17:26:51.932Z,94.59
2023-02-12T17:29:21.974Z,94.99
2023-02-12T17:31:52.288Z,95.27
2023-02-12T17:34:21.612Z,95.69
2023-02-12T17:36:50.495Z,96.05
2023-02-12T17:39:19.761Z,95.19
2023-02-12T17:41:48.704Z,93.96
2023-02-12T17:44:17.299Z,92.52
2023-02-12T17:46:46.079Z,92.19
2023-02-12T17:49:15.256Z,92.44
2023-02-12T17:51:44.014Z,92.10
2023-02-12T17:54:12.606Z,92.56
2023-02-12T17:56:41.374Z,92.10
2023-02-12T17:59:10.687Z,91.97
2023-02-12T18:01:40.709Z,94.12
2023-02-12T18:04:09.469Z,94.81
2023-02-12T18:06:38.652Z,95.17
2023-02-12T18:09:07.075Z,95.47
2023-02-12T18:11:38.335Z,95.70
2023-02-12T18:14:06.470Z,96.96
2023-02-12T18:16:36.474Z,98.06
2023-02-12T18:19:05.703Z,98.87
2023-02-12T18:21:35.148Z,99.96
2023-02-12T18:24:03.510Z,100.00
2023-02-12T18:26:31.286Z,100.00
2023-02-12T18:28:59.509Z,100.00
2023-02-12T18:31:27.217Z,100.00
2023-02-12T18:33:56.574Z,100.00
2023-02-12T18:36:24.935Z,100.00
2023-02-12T18:38:53.487Z,100.00
2023-02-12T18:41:24.134Z,100.00
2023-02-12T18:43:52.138Z,100.00
2023-02-12T18:46:22.019Z,100.00
2023-02-12T18:48:52.360Z,100.00
2023-02-12T18:51:22.489Z,100.00
2023-02-12T18:53:56.953Z,100.00
2023-02-12T18:56:24.511Z,100.00
2023-02-12T18:58:56.860Z,100.00
2023-02-12T19:01:24.474Z,100.00
2023-02-12T19:03:56.175Z,100.00
2023-02-12T19:06:23.746Z,100.00
2023-02-12T19:08:56.331Z,100.00
2023-02-12T19:11:23.765Z,100.00
2023-02-12T19:13:51.150Z,100.00
2023-02-12T19:16:19.377Z,100.00
2023-02-12T19:18:50.461Z,100.00
2023-02-12T19:21:21.201Z,100.00
2023-02-12T19:23:48.607Z,100.00
2023-02-12T19:26:16.228Z,100.00
2023-02-12T19:28:43.532Z,100.00
2023-02-12T19:31:15.373Z,100.00
2023-02-12T19:33:44.688Z,100.00
2023-02-12T19:36:13.635Z,100.00
2023-02-12T19:38:41.161Z,100.00
2023-02-12T19:41:13.654Z,100.00
2023-02-12T19:43:40.865Z,100.00
2023-02-12T19:46:18.480Z,100.00
2023-02-12T19:48:46.444Z,100.00
2023-02-12T19:51:18.532Z,100.00
2023-02-12T19:53:46.033Z,100.00
2023-02-12T19:56:13.955Z,100.00
2023-02-12T19:58:43.027Z,99.57
2023-02-12T20:01:14.589Z,99.63
2023-02-12T20:03:42.059Z,97.28
2023-02-12T20:06:11.190Z,97.07
2023-02-12T20:08:39.447Z,95.85
2023-02-12T20:11:07.657Z,95.06
2023-02-12T20:13:38.948Z,91.75
2023-02-12T20:16:08.287Z,90.91
2023-02-12T20:18:35.946Z,90.53
2023-02-12T20:21:09.455Z,90.75
2023-02-12T20:23:37.185Z,90.35
2023-02-12T20:26:06.083Z,89.93
2023-02-12T20:28:34.540Z,89.62
2023-02-12T20:31:29.311Z,88.47
2023-02-12T20:34:01.685Z,86.00
2023-02-12T20:36:36.954Z,85.23
2023-02-12T20:39:04.730Z,86.11
2023-02-12T20:41:32.078Z,85.27
2023-02-12T20:43:59.896Z,85.81
2023-02-12T20:46:27.798Z,86.17
2023-02-12T20:48:55.563Z,84.52
2023-02-12T20:51:24.206Z,84.49
2023-02-12T20:53:51.676Z,83.28
2023-02-12T20:56:20.744Z,82.41
2023-02-12T20:58:48.038Z,81.68
2023-02-12T21:01:19.024Z,80.65
2023-02-12T21:03:46.464Z,78.76
2023-02-12T21:06:15.788Z,78.76
2023-02-12T21:08:45.316Z,77.14
2023-02-12T21:11:15.431Z,77.38
2023-02-12T21:13:53.724Z,75.16
2023-02-12T21:16:34.650Z,73.96
2023-02-12T21:19:02.063Z,73.41
2023-02-12T21:21:34.813Z,71.83
2023-02-12T21:24:05.163Z,72.55
2023-02-12T21:26:36.254Z,72.57
2023-02-12T21:29:05.040Z,72.44
2023-02-12T21:31:37.739Z,71.67
2023-02-12T21:34:06.170Z,72.41
2023-02-12T21:36:35.669Z,73.46
2023-02-12T21:39:09.409Z,74.52
2023-02-12T21:41:38.625Z,75.27
2023-02-12T21:44:16.329Z,75.88
2023-02-12T21:46:43.747Z,77.65
2023-02-12T21:49:14.965Z,78.18
2023-02-12T21:51:44.384Z,77.83
2023-02-12T21:54:13.573Z,77.98
2023-02-12T21:56:41.418Z,78.25
2023-02-12T21:59:08.841Z,78.94
2023-02-12T22:01:39.138Z,79.64
2023-02-12T22:04:08.733Z,80.52
2023-02-12T22:06:37.930Z,80.95
2023-02-12T22:09:08.988Z,81.82
2023-02-12T22:11:37.885Z,82.04
2023-02-12T22:14:06.821Z,82.91
2023-02-12T22:16:35.439Z,83.42
2023-02-12T22:19:03.214Z,83.40
2023-02-12T22:21:34.274Z,84.27
2023-02-12T22:24:02.554Z,84.82
2023-02-12T22:26:30.368Z,85.40
2023-02-12T22:29:09.651Z,85.45
2023-02-12T22:31:37.935Z,85.45
2023-02-12T22:34:08.277Z,86.93
2023-02-12T22:36:36.595Z,86.96
2023-02-12T22:39:03.961Z,88.42
2023-02-12T22:41:31.313Z,90.18
2023-02-12T22:44:00.116Z,90.94
2023-02-12T22:46:27.523Z,91.60
2023-02-12T22:48:56.023Z,92.35
2023-02-12T22:51:28.497Z,93.64
2023-02-12T22:53:55.853Z,93.72
2023-02-12T22:56:23.569Z,93.80
2023-02-12T22:58:58.227Z,93.23
2023-02-12T23:01:28.535Z,93.64
2023-02-12T23:03:56.011Z,93.73
2023-02-12T23:06:25.868Z,93.88
2023-02-12T23:08:55.339Z,94.50
2023-02-12T23:11:24.541Z,94.55
2023-02-12T23:13:52.207Z,96.00
2023-02-12T23:16:21.033Z,95.32
2023-02-12T23:18:48.556Z,95.82
2023-02-12T23:21:16.113Z,95.66
2023-02-12T23:23:43.473Z,95.34
2023-02-12T23:26:10.667Z,95.04
2023-02-12T23:28:38.373Z,95.90
2023-02-12T23:31:05.761Z,95.86
2023-02-12T23:33:33.506Z,95.41
2023-02-12T23:36:00.797Z,96.34
2023-02-12T23:38:28.224Z,97.71
2023-02-12T23:40:55.971Z,97.59
2023-02-12T23:43:23.397Z,98.15
2023-02-12T23:45:50.790Z,98.45
2023-02-12T23:48:19.006Z,97.89
2023-02-12T23:50:48.733Z,97.59
2023-02-12T23:53:19.163Z,98.02
2023-02-12T23:55:49.544Z,98.14
2023-02-12T23:58:20.893Z,98.93
